Time;durP1;ratioP1;P1;durP2;ratioP2;P2;SDS_P1;SDS_P2;PMS_P1;PMS_P2;Temp;Humidity;BMP_temperature;BMP_pressure;BME280_temperature;BME280_humidity;BME280_pressure;Samples;Min_cycle;Max_cycle;Signal;HPM_P1;HPM_P2
2024/01/30 00:01:25;;;;;;;92.53;53.78;;;16.10;68.30;;;;;;4980258;28;90031;-76
2024/01/30 00:03:51;;;;;;;92.13;53.42;;;16.10;68.40;;;;;;4982516;28;90359;-77
2024/01/30 00:06:23;;;;;;;92.35;53.58;;;16.10;68.40;;;;;;4959770;28;89454;-76
2024/01/30 00:08:49;;;;;;;93.50;53.80;;;16.10;68.50;;;;;;4981554;28;89676;-76
2024/01/30 00:11:15;;;;;;;92.05;53.47;;;16.10;68.40;;;;;;4984588;28;91545;-75
2024/01/30 00:13:41;;;;;;;91.20;53.35;;;16.00;68.40;;;;;;4977932;28;90342;-75
2024/01/30 00:16:09;;;;;;;92.40;53.20;;;16.10;68.50;;;;;;4985401;28;90155;-75
2024/01/30 00:18:34;;;;;;;92.55;53.25;;;16.00;68.40;;;;;;4980683;28;89882;-76
2024/01/30 00:21:00;;;;;;;91.38;53.17;;;16.00;68.50;;;;;;4965834;28;92920;-76
2024/01/30 00:23:26;;;;;;;92.38;53.47;;;16.00;68.40;;;;;;4976994;28;90546;-77
2024/01/30 00:25:51;;;;;;;92.95;53.53;;;16.00;68.50;;;;;;4983597;28;89913;-75
2024/01/30 00:28:17;;;;;;;91.47;53.22;;;16.00;68.50;;;;;;4981389;28;91463;-83
2024/01/30 00:30:43;;;;;;;91.10;53.13;;;16.00;68.50;;;;;;4982308;28;90686;-84
2024/01/30 00:33:09;;;;;;;92.07;53.08;;;16.00;68.50;;;;;;4981124;28;89712;-83
2024/01/30 00:35:35;;;;;;;92.68;53.13;;;16.00;68.50;;;;;;4980891;28;89286;-82
2024/01/30 00:38:00;;;;;;;93.47;52.88;;;15.90;68.60;;;;;;4980669;28;90170;-77
2024/01/30 00:40:26;;;;;;;92.65;53.40;;;15.90;68.50;;;;;;4963035;28;92168;-78
2024/01/30 00:42:52;;;;;;;90.95;53.17;;;15.90;68.60;;;;;;4983745;28;89590;-74
2024/01/30 00:45:18;;;;;;;91.85;53.28;;;15.90;68.70;;;;;;4980832;28;88897;-75
2024/01/30 00:47:44;;;;;;;93.15;53.80;;;15.90;68.70;;;;;;4977691;28;90605;-77
2024/01/30 00:50:11;;;;;;;91.65;53.33;;;15.90;68.70;;;;;;4980211;28;92266;-74
2024/01/30 00:52:36;;;;;;;91.80;53.15;;;15.90;68.70;;;;;;4979330;28;90359;-75
2024/01/30 00:55:03;;;;;;;91.68;53.25;;;15.90;68.70;;;;;;4983817;28;89794;-75
2024/01/30 00:57:28;;;;;;;93.05;53.28;;;15.90;68.80;;;;;;4978430;28;91975;-74
2024/01/30 00:59:54;;;;;;;91.72;53.58;;;15.90;68.80;;;;;;4977971;28;89659;-85
2024/01/30 01:02:20;;;;;;;92.03;53.50;;;15.90;68.80;;;;;;4983368;28;89718;-84
2024/01/30 01:04:46;;;;;;;91.63;53.78;;;15.90;68.90;;;;;;4978697;28;89688;-85
2024/01/30 01:07:11;;;;;;;92.20;53.53;;;15.80;68.80;;;;;;4985234;28;90961;-83
2024/01/30 01:09:37;;;;;;;92.47;53.80;;;15.90;68.80;;;;;;4980612;28;91333;-84
2024/01/30 01:12:04;;;;;;;91.70;53.45;;;15.90;68.90;;;;;;4981932;28;89007;-85
2024/01/30 01:14:30;;;;;;;91.70;53.40;;;15.90;68.90;;;;;;4977757;28;89690;-81
2024/01/30 01:16:55;;;;;;;91.70;53.05;;;15.80;68.90;;;;;;4980617;28;90450;-84
2024/01/30 01:19:22;;;;;;;90.63;53.13;;;15.80;68.90;;;;;;4990907;28;90644;-85
2024/01/30 01:21:47;;;;;;;92.10;53.20;;;15.80;68.90;;;;;;4986372;28;89608;-84
2024/01/30 01:24:13;;;;;;;91.93;53.53;;;15.80;68.90;;;;;;4990473;28;89156;-84
2024/01/30 01:26:39;;;;;;;93.18;53.53;;;15.80;68.90;;;;;;4982832;28;90277;-84
2024/01/30 01:29:09;;;;;;;91.20;53.33;;;15.80;69.00;;;;;;4987194;28;89620;-83
2024/01/30 01:31:39;;;;;;;92.63;54.13;;;15.80;69.00;;;;;;4990008;28;90410;-83
2024/01/30 01:34:06;;;;;;;92.07;53.40;;;15.70;68.90;;;;;;4987362;28;88386;-86
2024/01/30 01:36:31;;;;;;;91.75;53.65;;;15.70;69.00;;;;;;4987324;28;89907;-83
2024/01/30 01:38:57;;;;;;;91.93;53.55;;;15.80;69.00;;;;;;4982272;28;91185;-81
2024/01/30 01:41:23;;;;;;;91.20;53.17;;;15.70;69.00;;;;;;4985368;28;90628;-82
2024/01/30 01:43:48;;;;;;;92.97;53.78;;;15.70;69.00;;;;;;4983564;28;88730;-83
2024/01/30 01:46:15;;;;;;;90.60;53.28;;;15.70;68.90;;;;;;4984340;28;90079;-82
2024/01/30 01:48:42;;;;;;;90.85;53.03;;;15.70;69.10;;;;;;4965346;28;93813;-80
2024/01/30 01:51:09;;;;;;;91.30;53.33;;;15.70;69.10;;;;;;4982646;28;89718;-79
2024/01/30 01:53:35;;;;;;;91.30;53.38;;;15.70;69.10;;;;;;4985332;28;89116;-79
2024/01/30 01:56:00;;;;;;;91.57;53.38;;;15.70;69.10;;;;;;4982156;28;90583;-79
2024/01/30 01:58:28;;;;;;;91.13;53.45;;;15.70;69.10;;;;;;4984396;28;89902;-79
2024/01/30 02:00:56;;;;;;;92.15;53.35;;;15.70;69.00;;;;;;4965430;28;90909;-79
2024/01/30 02:03:22;;;;;;;91.60;53.67;;;15.70;69.00;;;;;;4978709;28;89140;-79
2024/01/30 02:05:47;;;;;;;91.80;53.45;;;15.70;69.00;;;;;;4979299;28;91727;-80
2024/01/30 02:08:13;;;;;;;92.28;53.53;;;15.70;69.10;;;;;;4983181;28;91003;-83
2024/01/30 02:10:39;;;;;;;91.28;53.25;;;15.70;69.00;;;;;;4967690;28;93342;-83
2024/01/30 02:13:04;;;;;;;90.55;52.95;;;15.60;69.00;;;;;;4981086;28;88795;-83
2024/01/30 02:15:30;;;;;;;91.82;53.30;;;15.70;69.00;;;;;;4986710;28;89742;-82
2024/01/30 02:17:56;;;;;;;91.00;53.33;;;15.60;69.00;;;;;;4973000;28;92535;-82
2024/01/30 02:20:24;;;;;;;92.22;53.50;;;15.60;69.00;;;;;;4986590;28;89060;-83
2024/01/30 02:22:52;;;;;;;92.20;53.42;;;15.60;68.90;;;;;;4987659;28;88143;-83
2024/01/30 02:25:18;;;;;;;92.18;53.65;;;15.60;69.00;;;;;;4985510;28;91135;-81
2024/01/30 02:27:43;;;;;;;91.90;53.70;;;15.60;69.00;;;;;;4989088;28;90003;-83
2024/01/30 02:30:10;;;;;;;91.55;53.47;;;15.60;69.00;;;;;;4967596;28;90634;-82
2024/01/30 02:32:35;;;;;;;91.43;53.03;;;15.60;69.00;;;;;;4984378;28;90323;-81
2024/01/30 02:35:01;;;;;;;90.75;53.22;;;15.60;69.00;;;;;;4981272;28;89862;-82
2024/01/30 02:37:27;;;;;;;91.68;53.58;;;15.60;68.90;;;;;;4986003;28;89997;-82
2024/01/30 02:39:52;;;;;;;90.50;53.20;;;15.60;68.90;;;;;;4985738;28;89545;-81
2024/01/30 02:42:18;;;;;;;91.47;53.20;;;15.60;69.00;;;;;;4984948;28;88938;-84
2024/01/30 02:44:43;;;;;;;91.47;53.38;;;15.60;69.00;;;;;;4986273;28;90116;-82
2024/01/30 02:47:09;;;;;;;90.68;53.33;;;15.60;69.00;;;;;;4989588;28;89538;-83
2024/01/30 02:49:35;;;;;;;90.80;53.05;;;15.60;68.90;;;;;;4987786;28;88807;-82
2024/01/30 02:52:00;;;;;;;92.07;53.10;;;15.60;68.90;;;;;;4985537;28;89024;-82
2024/01/30 02:54:26;;;;;;;91.90;53.45;;;15.60;69.00;;;;;;4985898;28;90523;-82
2024/01/30 02:56:51;;;;;;;91.00;52.92;;;15.60;69.00;;;;;;4968388;28;94068;-81
2024/01/30 02:59:17;;;;;;;91.78;53.33;;;15.60;69.00;;;;;;4983544;28;90713;-77
2024/01/30 03:01:44;;;;;;;92.25;53.22;;;15.60;68.90;;;;;;4986736;28;89637;-76
2024/01/30 03:04:10;;;;;;;91.53;53.42;;;15.60;68.90;;;;;;4965435;28;92480;-77
2024/01/30 03:06:36;;;;;;;91.53;53.47;;;15.60;69.00;;;;;;4982710;28;90121;-77
2024/01/30 03:09:02;;;;;;;91.45;53.20;;;15.60;69.00;;;;;;4967841;28;89572;-78
2024/01/30 03:11:28;;;;;;;92.05;53.70;;;15.60;68.90;;;;;;4963256;28;88454;-77
2024/01/30 03:13:53;;;;;;;91.18;53.47;;;15.50;68.90;;;;;;4983127;28;90560;-78
2024/01/30 03:16:19;;;;;;;90.55;53.17;;;15.60;68.90;;;;;;4987289;28;90371;-77
2024/01/30 03:18:44;;;;;;;91.07;53.28;;;15.60;68.90;;;;;;4988478;28;90439;-77
2024/01/30 03:21:10;;;;;;;91.68;53.08;;;15.50;68.70;;;;;;4983334;28;89674;-78
2024/01/30 03:23:36;;;;;;;91.40;53.00;;;15.50;68.70;;;;;;4984494;28;89946;-79
2024/01/30 03:26:01;;;;;;;90.25;52.92;;;15.60;68.90;;;;;;4979855;28;90406;-80
2024/01/30 03:28:27;;;;;;;91.03;53.38;;;15.50;68.80;;;;;;4982045;28;90189;-80
2024/01/30 03:30:53;;;;;;;90.43;52.78;;;15.50;68.70;;;;;;4981437;28;90666;-81
2024/01/30 03:33:18;;;;;;;92.57;53.30;;;15.50;68.70;;;;;;4983201;28;90547;-81
2024/01/30 03:35:44;;;;;;;90.97;53.30;;;15.50;68.70;;;;;;4981189;28;90009;-80
2024/01/30 03:38:09;;;;;;;91.45;53.35;;;15.60;68.80;;;;;;4983812;28;89228;-82
2024/01/30 03:40:35;;;;;;;90.90;52.95;;;15.50;68.80;;;;;;4986087;28;89469;-80
2024/01/30 03:43:01;;;;;;;91.15;53.22;;;15.50;68.70;;;;;;4980297;28;91014;-81
2024/01/30 03:45:26;;;;;;;91.13;52.95;;;15.50;68.70;;;;;;4983348;28;89984;-80
2024/01/30 03:47:52;;;;;;;90.60;52.60;;;15.50;68.70;;;;;;4985633;28;89247;-80
2024/01/30 03:50:17;;;;;;;92.38;53.30;;;15.50;68.70;;;;;;4982596;28;90334;-80
2024/01/30 03:52:43;;;;;;;90.53;52.90;;;15.50;68.70;;;;;;4983393;28;90585;-81
2024/01/30 03:55:09;;;;;;;91.15;53.28;;;15.50;68.70;;;;;;4980475;28;90099;-81
2024/01/30 03:57:34;;;;;;;91.53;53.33;;;15.50;68.70;;;;;;4983858;28;89138;-81
2024/01/30 04:00:00;;;;;;;90.55;53.28;;;15.50;68.60;;;;;;4965725;28;89180;-79
2024/01/30 04:02:25;;;;;;;90.05;52.90;;;15.50;68.70;;;;;;4967579;28;93137;-80
2024/01/30 04:04:51;;;;;;;90.78;52.97;;;15.50;68.70;;;;;;4982989;28;90104;-81
2024/01/30 04:07:17;;;;;;;90.70;53.05;;;15.50;68.70;;;;;;4984875;28;90520;-80
2024/01/30 04:09:42;;;;;;;93.72;53.28;;;15.50;68.70;;;;;;4984302;28;89428;-79
2024/01/30 04:12:08;;;;;;;90.45;53.00;;;15.50;68.60;;;;;;4984107;28;89749;-81
2024/01/30 04:14:35;;;;;;;89.55;52.78;;;15.50;68.60;;;;;;4985296;28;89194;-80
2024/01/30 04:17:01;;;;;;;90.13;52.90;;;15.40;68.60;;;;;;4982516;28;89167;-78
2024/01/30 04:19:26;;;;;;;90.68;53.20;;;15.40;68.70;;;;;;4984608;28;90206;-81
2024/01/30 04:21:52;;;;;;;90.50;53.08;;;15.40;68.60;;;;;;4979120;28;90764;-79
2024/01/30 04:24:18;;;;;;;90.78;53.22;;;15.40;68.60;;;;;;4980314;28;89914;-78
2024/01/30 04:26:44;;;;;;;91.47;53.47;;;15.40;68.60;;;;;;4967124;28;90134;-81
2024/01/30 04:29:09;;;;;;;90.20;53.05;;;15.40;68.50;;;;;;4981943;28;89197;-81
2024/01/30 04:31:36;;;;;;;90.13;53.03;;;15.40;68.60;;;;;;4983707;28;91069;-81
2024/01/30 04:34:02;;;;;;;90.78;53.17;;;15.40;68.60;;;;;;4977984;28;90489;-81
2024/01/30 04:36:28;;;;;;;91.03;53.28;;;15.40;68.60;;;;;;4983493;28;88718;-81
2024/01/30 04:38:53;;;;;;;91.25;53.30;;;15.40;68.60;;;;;;4979142;28;89041;-78
2024/01/30 04:41:19;;;;;;;90.13;52.92;;;15.40;68.60;;;;;;4968820;28;92815;-77
2024/01/30 04:43:44;;;;;;;91.53;53.33;;;15.40;68.60;;;;;;4992200;28;91527;-78
2024/01/30 04:46:10;;;;;;;90.55;52.78;;;15.40;68.60;;;;;;4980945;28;89143;-77
2024/01/30 04:48:36;;;;;;;90.10;53.03;;;15.40;68.50;;;;;;4964559;28;88532;-78
2024/01/30 04:51:03;;;;;;;91.15;53.03;;;15.40;68.50;;;;;;4981897;28;89880;-78
2024/01/30 04:53:32;;;;;;;90.85;53.28;;;15.40;68.60;;;;;;4989022;28;89621;-77
2024/01/30 04:55:58;;;;;;;91.53;53.65;;;15.40;68.50;;;;;;4964465;28;91184;-78
2024/01/30 04:58:23;;;;;;;90.68;53.22;;;15.40;68.50;;;;;;4981799;28;89832;-75
2024/01/30 05:00:51;;;;;;;91.93;53.45;;;15.40;68.50;;;;;;4975155;28;90755;-75
2024/01/30 05:03:18;;;;;;;91.78;53.17;;;15.40;68.50;;;;;;4959996;28;92698;-75
2024/01/30 05:05:44;;;;;;;91.53;53.17;;;15.40;68.60;;;;;;4983643;28;89314;-74
2024/01/30 05:08:10;;;;;;;90.50;53.13;;;15.30;68.60;;;;;;4980656;28;89798;-78
2024/01/30 05:10:35;;;;;;;90.68;53.10;;;15.30;68.70;;;;;;4983059;28;91751;-77
2024/01/30 05:13:01;;;;;;;90.28;52.97;;;15.40;68.70;;;;;;4979201;28;89644;-75
2024/01/30 05:15:27;;;;;;;91.35;53.30;;;15.40;68.80;;;;;;4979980;28;90708;-74
2024/01/30 05:17:52;;;;;;;90.47;53.20;;;15.30;68.70;;;;;;4982921;28;90361;-75
2024/01/30 05:20:20;;;;;;;92.10;53.55;;;15.30;68.80;;;;;;4979453;28;91195;-75
2024/01/30 05:22:45;;;;;;;91.30;53.17;;;15.30;68.90;;;;;;4976633;28;90773;-76
2024/01/30 05:25:13;;;;;;;91.22;52.95;;;15.30;69.00;;;;;;4981474;28;89613;-77
2024/01/30 05:27:39;;;;;;;90.65;53.33;;;15.30;68.90;;;;;;4983941;28;90014;-74
2024/01/30 05:30:06;;;;;;;92.68;53.65;;;15.30;69.00;;;;;;4982582;28;90340;-76
2024/01/30 05:32:32;;;;;;;90.90;53.17;;;15.30;69.00;;;;;;4986396;28;92104;-76
2024/01/30 05:34:58;;;;;;;91.00;53.05;;;15.30;69.00;;;;;;4976822;28;90006;-78
2024/01/30 05:37:23;;;;;;;90.63;53.25;;;15.30;68.90;;;;;;4983764;28;88729;-78
2024/01/30 05:39:49;;;;;;;92.18;53.10;;;15.30;68.90;;;;;;4978466;28;90243;-77
2024/01/30 05:42:16;;;;;;;90.35;52.95;;;15.30;68.90;;;;;;4981289;28;90178;-78
2024/01/30 05:44:42;;;;;;;91.90;53.30;;;15.30;68.90;;;;;;4984427;28;90381;-78
2024/01/30 05:47:08;;;;;;;92.13;52.88;;;15.30;69.00;;;;;;4988480;28;89895;-79
2024/01/30 05:49:34;;;;;;;91.05;52.95;;;15.30;69.00;;;;;;4980057;28;91582;-77
2024/01/30 05:52:02;;;;;;;91.53;53.17;;;15.30;69.00;;;;;;4966949;28;92346;-78
2024/01/30 05:54:27;;;;;;;90.78;52.42;;;15.30;68.90;;;;;;4985136;28;89879;-78
2024/01/30 05:56:53;;;;;;;90.50;52.63;;;15.30;69.00;;;;;;4980604;28;89676;-77
2024/01/30 05:59:18;;;;;;;91.43;52.83;;;15.30;69.00;;;;;;4982137;28;89877;-77
2024/01/30 06:01:48;;;;;;;91.07;53.17;;;15.30;68.90;;;;;;4981904;28;88953;-77
2024/01/30 06:04:14;;;;;;;90.82;53.03;;;15.30;68.90;;;;;;4977206;28;89473;-77
2024/01/30 06:06:39;;;;;;;91.95;53.28;;;15.40;69.10;;;;;;4985374;28;89692;-79
2024/01/30 06:09:05;;;;;;;90.75;53.33;;;15.30;69.40;;;;;;4981808;28;90782;-80
2024/01/30 06:11:31;;;;;;;93.60;53.65;;;15.30;69.40;;;;;;4983527;28;90712;-81
2024/01/30 06:13:57;;;;;;;92.38;53.53;;;15.40;69.40;;;;;;4981609;28;89078;-81
2024/01/30 06:16:22;;;;;;;94.75;53.28;;;15.30;69.30;;;;;;4983370;28;89754;-81
2024/01/30 06:18:48;;;;;;;91.28;53.28;;;15.40;69.50;;;;;;4983421;28;89725;-82
2024/01/30 06:21:14;;;;;;;92.75;53.45;;;15.40;69.40;;;;;;4980533;28;90848;-81
2024/01/30 06:23:40;;;;;;;92.00;53.10;;;15.30;69.40;;;;;;4981584;28;89860;-83
2024/01/30 06:26:07;;;;;;;92.50;53.33;;;15.40;69.60;;;;;;4983962;28;88854;-83
2024/01/30 06:28:32;;;;;;;91.65;53.20;;;15.40;69.50;;;;;;4984980;28;90777;-82
2024/01/30 06:30:58;;;;;;;92.32;53.13;;;15.40;69.70;;;;;;4986228;28;89494;-81
2024/01/30 06:33:23;;;;;;;92.13;53.08;;;15.30;69.90;;;;;;4988609;28;91139;-79
2024/01/30 06:35:49;;;;;;;92.07;53.45;;;15.40;69.80;;;;;;4983790;28;89911;-81
2024/01/30 06:38:15;;;;;;;92.40;53.20;;;15.40;69.60;;;;;;4987194;28;89644;-81
2024/01/30 06:40:41;;;;;;;93.72;52.65;;;15.40;69.40;;;;;;5012655;22;91118;-47
2024/01/30 06:43:07;;;;;;;95.60;52.97;;;15.40;69.60;;;;;;5008640;27;89631;-44
2024/01/30 06:45:34;;;;;;;92.93;53.17;;;15.30;69.90;;;;;;5004837;27;90985;-45
2024/01/30 06:48:00;;;;;;;91.57;53.00;;;15.40;69.90;;;;;;5011762;27;89455;-48
2024/01/30 06:50:26;;;;;;;91.40;52.40;;;15.30;69.60;;;;;;5011390;27;89412;-44
2024/01/30 06:52:52;;;;;;;90.07;52.70;;;15.30;69.60;;;;;;5010302;28;89200;-45
2024/01/30 06:55:18;;;;;;;93.70;52.72;;;15.40;69.60;;;;;;4992107;28;89877;-47
2024/01/30 06:57:44;;;;;;;98.25;53.20;;;15.40;69.50;;;;;;5013008;27;92815;-49
2024/01/30 07:00:10;;;;;;;93.40;53.40;;;15.30;69.30;;;;;;5007018;27;90394;-47
2024/01/30 07:02:36;;;;;;;90.95;52.72;;;15.40;69.30;;;;;;5009954;27;91500;-46
2024/01/30 07:05:02;;;;;;;92.82;52.78;;;15.40;69.60;;;;;;5007676;28;89360;-46
2024/01/30 07:07:28;;;;;;;93.18;52.75;;;15.40;69.70;;;;;;5012921;27;90720;-46
2024/01/30 07:09:56;;;;;;;91.85;52.42;;;15.40;70.20;;;;;;5006369;27;89857;-45
2024/01/30 07:12:24;;;;;;;92.72;52.78;;;15.40;70.50;;;;;;5012023;27;90681;-47
2024/01/30 07:14:50;;;;;;;92.13;53.47;;;15.40;70.30;;;;;;5026127;22;88427;-68
2024/01/30 07:17:16;;;;;;;91.78;52.60;;;15.40;70.30;;;;;;4994900;28;89767;-73
2024/01/30 07:19:41;;;;;;;93.07;52.35;;;15.40;70.10;;;;;;4996155;28;89245;-71
2024/01/30 07:22:08;;;;;;;92.22;53.15;;;15.40;70.20;;;;;;4993228;28;91022;-73
2024/01/30 07:24:34;;;;;;;92.47;52.75;;;15.40;70.10;;;;;;4995318;28;89239;-70
2024/01/30 07:26:59;;;;;;;92.47;52.92;;;15.40;70.00;;;;;;4974398;28;92177;-71
2024/01/30 07:29:25;;;;;;;92.00;52.88;;;15.40;70.10;;;;;;4995002;28;89921;-74
2024/01/30 07:31:51;;;;;;;90.80;52.72;;;15.40;70.00;;;;;;4990607;28;90121;-73
2024/01/30 07:34:16;;;;;;;92.82;53.72;;;15.40;70.20;;;;;;5023046;22;89956;-73
2024/01/30 07:36:42;;;;;;;92.35;52.67;;;15.40;70.20;;;;;;4998127;28;89578;-73
2024/01/30 07:39:08;;;;;;;94.07;52.97;;;15.40;70.90;;;;;;4985786;28;88867;-74
2024/01/30 07:41:33;;;;;;;91.65;52.88;;;15.30;70.00;;;;;;4995505;28;89271;-72
2024/01/30 07:43:59;;;;;;;90.82;52.65;;;15.40;70.10;;;;;;4973422;28;90147;-73
2024/01/30 07:46:24;;;;;;;90.88;52.85;;;15.40;70.00;;;;;;4993457;28;90807;-73
2024/01/30 07:51:24;;;;;;;91.47;53.33;;;15.40;70.10;;;;;;5021480;22;89730;-77
2024/01/30 07:53:50;;;;;;;92.95;53.15;;;15.40;70.10;;;;;;5025194;27;89405;-76
2024/01/30 07:56:15;;;;;;;93.18;53.58;;;15.40;70.00;;;;;;5003715;28;93153;-76
2024/01/30 07:58:41;;;;;;;91.82;53.17;;;15.40;70.00;;;;;;5016882;27;89883;-78
2024/01/30 08:01:10;;;;;;;90.60;53.42;;;15.40;70.00;;;;;;5017237;27;88651;-76
2024/01/30 08:03:36;;;;;;;92.80;53.25;;;15.40;69.90;;;;;;5017488;27;91210;-76
2024/01/30 08:06:03;;;;;;;93.80;53.83;;;15.40;70.00;;;;;;5019569;27;90714;-76
2024/01/30 08:08:28;;;;;;;91.25;53.13;;;15.40;70.00;;;;;;5019685;27;90406;-76
2024/01/30 08:10:54;;;;;;;92.75;53.92;;;15.40;69.90;;;;;;5020413;27;90737;-78
2024/01/30 08:13:20;;;;;;;89.93;53.20;;;15.40;69.90;;;;;;5019664;27;89887;-80
2024/01/30 08:15:45;;;;;;;90.63;53.20;;;15.40;69.90;;;;;;5018391;27;89801;-80
2024/01/30 08:18:11;;;;;;;91.40;53.15;;;15.40;69.90;;;;;;5005903;28;91550;-81
2024/01/30 08:20:36;;;;;;;90.85;53.20;;;15.40;69.90;;;;;;5006872;28;89200;-81
2024/01/30 08:23:02;;;;;;;90.60;53.35;;;15.40;69.90;;;;;;5024852;27;89882;-83
2024/01/30 08:25:28;;;;;;;90.78;53.25;;;15.40;69.80;;;;;;5015990;27;89626;-83
2024/01/30 08:27:53;;;;;;;91.95;53.97;;;15.40;69.80;;;;;;5018509;27;89085;-83
2024/01/30 08:30:19;;;;;;;91.28;53.47;;;15.30;69.70;;;;;;4997255;28;89720;-83
2024/01/30 08:32:45;;;;;;;95.43;53.65;;;15.40;69.70;;;;;;5002332;28;90198;-78
2024/01/30 08:35:13;;;;;;;91.40;53.47;;;15.40;69.60;;;;;;5001488;28;90670;-75
2024/01/30 08:37:39;;;;;;;92.78;53.50;;;15.40;69.60;;;;;;5006478;28;91854;-74
2024/01/30 08:40:05;;;;;;;91.03;53.40;;;15.40;69.50;;;;;;5004979;28;89487;-74
2024/01/30 08:42:31;;;;;;;91.55;53.33;;;15.40;69.60;;;;;;5007433;28;89479;-78
2024/01/30 08:44:56;;;;;;;91.82;53.17;;;15.40;69.50;;;;;;5006174;28;89868;-73
2024/01/30 08:47:22;;;;;;;91.50;53.25;;;15.40;69.70;;;;;;5006733;28;89825;-73
2024/01/30 08:49:48;;;;;;;90.88;53.47;;;15.40;69.60;;;;;;4989019;28;89446;-74
2024/01/30 08:52:13;;;;;;;92.88;52.90;;;15.40;69.60;;;;;;5001111;28;88917;-79
2024/01/30 08:54:39;;;;;;;91.35;52.78;;;15.40;69.50;;;;;;5006713;28;90713;-78
2024/01/30 08:57:05;;;;;;;94.15;53.67;;;15.40;69.60;;;;;;5010443;28;90357;-78
2024/01/30 08:59:31;;;;;;;91.78;53.05;;;15.50;69.50;;;;;;5010647;28;90439;-78
2024/01/30 09:01:58;;;;;;;91.32;53.45;;;15.40;69.40;;;;;;5003851;28;89147;-78
2024/01/30 09:04:24;;;;;;;92.90;53.25;;;15.50;69.50;;;;;;4990208;28;93518;-78
2024/01/30 09:06:50;;;;;;;90.85;53.15;;;15.50;69.30;;;;;;5007447;28;91910;-78
2024/01/30 09:09:16;;;;;;;90.82;52.95;;;15.50;69.20;;;;;;5008614;28;89162;-77
2024/01/30 09:11:41;;;;;;;92.05;53.20;;;15.50;69.20;;;;;;5012894;28;89741;-78
2024/01/30 09:14:07;;;;;;;91.78;53.22;;;15.50;69.20;;;;;;5006390;28;89867;-78
2024/01/30 09:16:34;;;;;;;93.30;53.28;;;15.50;69.00;;;;;;5003247;28;89797;-80
2024/01/30 09:18:59;;;;;;;91.25;53.00;;;15.50;69.00;;;;;;4993481;28;89392;-78
2024/01/30 09:21:25;;;;;;;92.13;53.22;;;15.60;69.00;;;;;;5009146;28;91126;-79
2024/01/30 09:23:54;;;;;;;92.10;52.97;;;15.50;68.90;;;;;;5009976;28;90777;-80
2024/01/30 09:26:20;;;;;;;91.80;53.13;;;15.60;68.20;;;;;;4988335;28;93855;-78
2024/01/30 09:28:45;;;;;;;91.72;53.30;;;15.50;68.90;;;;;;5008654;28;90327;-79
2024/01/30 09:31:12;;;;;;;90.78;53.00;;;15.50;68.80;;;;;;5003645;28;89790;-79
2024/01/30 09:33:38;;;;;;;92.53;52.97;;;15.50;68.70;;;;;;5005604;28;90272;-79
2024/01/30 09:36:05;;;;;;;91.78;53.00;;;15.60;68.90;;;;;;4986697;28;92781;-80
2024/01/30 09:38:30;;;;;;;92.30;53.42;;;15.50;68.70;;;;;;5008763;28;90044;-78
2024/01/30 09:41:00;;;;;;;90.95;52.78;;;15.60;68.80;;;;;;5006241;28;89245;-79
2024/01/30 09:43:31;;;;;;;91.80;52.63;;;15.60;68.80;;;;;;5005769;28;90417;-79
2024/01/30 09:45:59;;;;;;;90.68;52.97;;;15.50;68.70;;;;;;5009502;28;90907;-80
2024/01/30 09:48:26;;;;;;;94.50;53.03;;;15.60;68.70;;;;;;5000747;28;94418;-77
2024/01/30 09:50:53;;;;;;;90.97;52.60;;;15.70;68.30;;;;;;5004242;28;89490;-77
2024/01/30 09:53:20;;;;;;;90.32;52.53;;;15.80;68.00;;;;;;4988637;28;94964;-78
2024/01/30 09:55:46;;;;;;;92.25;52.88;;;15.90;67.60;;;;;;5002091;28;89706;-78
2024/01/30 09:58:13;;;;;;;90.70;52.58;;;15.90;67.40;;;;;;5004055;28;90794;-77
2024/01/30 10:00:38;;;;;;;90.88;52.72;;;15.90;67.30;;;;;;4987125;28;89966;-78
2024/01/30 10:03:04;;;;;;;91.78;52.80;;;15.90;67.30;;;;;;5009078;28;89631;-77
2024/01/30 10:05:34;;;;;;;91.63;52.70;;;15.90;67.10;;;;;;5007511;28;89890;-76
2024/01/30 10:07:59;;;;;;;93.38;52.97;;;15.90;67.00;;;;;;4985203;28;89461;-75
2024/01/30 10:10:26;;;;;;;90.50;52.47;;;15.90;66.90;;;;;;5005814;28;89494;-79
2024/01/30 10:12:51;;;;;;;91.47;52.78;;;15.90;66.90;;;;;;4988654;28;94285;-79
2024/01/30 10:15:19;;;;;;;91.57;52.60;;;15.90;66.70;;;;;;5005744;28;90679;-78
2024/01/30 10:17:46;;;;;;;92.15;52.55;;;15.90;66.70;;;;;;5011384;28;89434;-78
2024/01/30 10:20:12;;;;;;;91.93;52.58;;;16.00;66.70;;;;;;5007461;28;89834;-79
2024/01/30 10:22:39;;;;;;;92.25;52.50;;;15.90;66.50;;;;;;5004263;28;89658;-79
2024/01/30 10:25:05;;;;;;;89.97;52.42;;;16.00;66.50;;;;;;5006756;28;89867;-79
2024/01/30 10:27:31;;;;;;;92.72;52.88;;;16.00;66.50;;;;;;5006677;28;89891;-79
2024/01/30 10:29:56;;;;;;;91.75;52.42;;;16.00;66.40;;;;;;4988797;28;88661;-80
2024/01/30 10:32:22;;;;;;;92.53;52.72;;;16.00;66.40;;;;;;4990441;28;92045;-81
2024/01/30 10:34:48;;;;;;;90.38;52.33;;;16.00;66.30;;;;;;5009817;28;90519;-81
2024/01/30 10:37:16;;;;;;;91.32;52.63;;;16.00;66.20;;;;;;5009931;28;90218;-81
2024/01/30 10:39:46;;;;;;;91.03;52.75;;;16.00;66.20;;;;;;5002701;28;89798;-81
2024/01/30 10:42:17;;;;;;;91.80;52.58;;;16.00;66.10;;;;;;5007130;28;90515;-77
2024/01/30 10:44:57;;;;;;;91.97;52.78;;;16.00;66.30;;;;;;5006982;28;89553;-78
2024/01/30 10:47:27;;;;;;;92.43;52.58;;;16.00;66.20;;;;;;5001811;28;89398;-79
2024/01/30 10:49:54;;;;;;;93.20;52.30;;;16.00;66.20;;;;;;5001777;28;90488;-76
2024/01/30 10:52:20;;;;;;;92.43;52.33;;;16.00;66.60;;;;;;5009773;28;90615;-75
2024/01/30 10:54:47;;;;;;;90.75;52.45;;;16.00;67.00;;;;;;5004345;28;89605;-77
2024/01/30 10:57:15;;;;;;;92.05;52.58;;;16.00;67.00;;;;;;5006779;28;89392;-76
2024/01/30 10:59:42;;;;;;;91.55;52.40;;;16.10;66.90;;;;;;5003710;28;90896;-78
2024/01/30 11:02:14;;;;;;;90.47;52.33;;;16.10;66.80;;;;;;5000053;28;90510;-78
2024/01/30 11:04:44;;;;;;;91.28;52.60;;;16.10;66.90;;;;;;4991164;28;93965;-76
2024/01/30 11:07:24;;;;;;;92.05;52.03;;;16.10;66.90;;;;;;5001070;28;90057;-78
2024/01/30 11:09:51;;;;;;;93.15;52.55;;;16.10;66.80;;;;;;5004238;28;89906;-76
2024/01/30 11:12:22;;;;;;;91.05;52.25;;;16.10;66.60;;;;;;5002834;28;90405;-80
2024/01/30 11:14:48;;;;;;;;;;;16.10;66.50;;;;;;5008257;28;89964;-80
2024/01/30 11:17:14;;;;;;;93.00;52.45;;;16.10;66.30;;;;;;5006152;28;88758;-81
2024/01/30 11:19:42;;;;;;;90.80;52.22;;;16.10;66.20;;;;;;5005101;28;88787;-81
2024/01/30 11:22:07;;;;;;;91.13;52.38;;;16.10;66.10;;;;;;5001950;28;90614;-81
2024/01/30 11:24:41;;;;;;;90.55;52.40;;;16.10;66.00;;;;;;5002925;28;91344;-81
2024/01/30 11:27:10;;;;;;;92.20;52.33;;;16.10;66.70;;;;;;5004257;28;90181;-81
2024/01/30 11:29:36;;;;;;;91.22;52.22;;;16.10;65.80;;;;;;5005504;28;89218;-80
2024/01/30 11:32:02;;;;;;;91.30;52.42;;;16.10;65.70;;;;;;5004324;28;89769;-81
2024/01/30 11:34:28;;;;;;;95.30;52.67;;;16.10;65.70;;;;;;5007304;28;90664;-81
2024/01/30 11:36:59;;;;;;;91.32;52.20;;;16.20;65.60;;;;;;5012104;28;90021;-81
2024/01/30 11:39:26;;;;;;;91.40;52.30;;;16.20;65.60;;;;;;5002825;28;89471;-80
2024/01/30 11:41:53;;;;;;;92.65;52.55;;;16.30;65.50;;;;;;5004905;28;90136;-81
2024/01/30 11:44:22;;;;;;;97.20;52.67;;;16.20;65.40;;;;;;4999465;28;89772;-81
2024/01/30 11:46:49;;;;;;;90.78;52.38;;;16.20;65.40;;;;;;4998270;28;89337;-81
2024/01/30 11:49:16;;;;;;;93.28;52.30;;;16.20;65.30;;;;;;5003197;28;89103;-81
2024/01/30 11:51:42;;;;;;;93.72;52.17;;;16.20;65.30;;;;;;5000593;28;91061;-81
2024/01/30 11:54:07;;;;;;;92.13;52.13;;;16.20;65.20;;;;;;4987232;28;93072;-81
2024/01/30 11:56:33;;;;;;;93.25;52.42;;;16.20;65.10;;;;;;4999381;28;88906;-82
2024/01/30 11:59:00;;;;;;;91.70;52.45;;;16.20;65.00;;;;;;4996896;28;89568;-80
2024/01/30 12:01:26;;;;;;;93.85;52.35;;;16.20;65.20;;;;;;4993062;28;91487;-80
2024/01/30 12:03:52;;;;;;;93.63;52.67;;;16.20;65.20;;;;;;4990904;28;91069;-79
2024/01/30 12:06:18;;;;;;;92.00;52.28;;;16.20;65.10;;;;;;4981557;28;90076;-79
2024/01/30 12:08:59;;;;;;;92.28;52.30;;;16.20;65.00;;;;;;4996403;28;88709;-79
2024/01/30 12:11:25;;;;;;;91.65;52.38;;;16.20;65.00;;;;;;4991837;28;91316;-79
2024/01/30 12:13:52;;;;;;;92.38;52.22;;;16.20;65.10;;;;;;4995154;28;89706;-80
2024/01/30 12:16:18;;;;;;;92.28;52.22;;;16.20;65.10;;;;;;4992081;28;90205;-80
2024/01/30 12:18:44;;;;;;;91.35;52.47;;;16.20;65.10;;;;;;4994464;28;88962;-79
2024/01/30 12:21:09;;;;;;;90.65;51.95;;;16.10;65.00;;;;;;5000648;28;89720;-79
2024/01/30 12:23:35;;;;;;;91.43;52.58;;;16.20;65.10;;;;;;4997781;28;89442;-79
2024/01/30 12:26:03;;;;;;;92.35;52.20;;;16.10;65.00;;;;;;4985589;28;89323;-80